sensor_id;sensor_type;location;lat;lon;timestamp;temperature;humidity
66035;HTU21D;52805;51.074;5.842;2024-03-02T00:01:05;11.42;10.11
66035;HTU21D;52805;51.074;5.842;2024-03-02T00:03:31;11.42;9.94
66035;HTU21D;52805;51.074;5.842;2024-03-02T00:05:57;11.42;10.12
66035;HTU21D;52805;51.074;5.842;2024-03-02T00:08:26;11.43;10.22
66035;HTU21D;52805;51.074;5.842;2024-03-02T00:10:58;11.48;9.98
66035;HTU21D;52805;51.074;5.842;2024-03-02T00:13:24;11.48;9.79
66035;HTU21D;52805;51.074;5.842;2024-03-02T00:15:53;11.49;9.77
66035;HTU21D;52805;51.074;5.842;2024-03-02T00:18:24;11.57;9.53
66035;HTU21D;52805;51.074;5.842;2024-03-02T00:20:53;11.51;10.03
66035;HTU21D;52805;51.074;5.842;2024-03-02T00:23:21;11.52;10.04
66035;HTU21D;52805;51.074;5.842;2024-03-02T00:25:52;11.53;10.05
66035;HTU21D;52805;51.074;5.842;2024-03-02T00:31:07;11.54;10.03
66035;HTU21D;52805;51.074;5.842;2024-03-02T00:33:36;11.56;9.93
66035;HTU21D;52805;51.074;5.842;2024-03-02T00:36:03;11.54;9.77
66035;HTU21D;52805;51.074;5.842;2024-03-02T00:38:34;11.57;9.82
66035;HTU21D;52805;51.074;5.842;2024-03-02T00:41:06;11.59;9.56
66035;HTU21D;52805;51.074;5.842;2024-03-02T00:46:18;11.56;9.94
66035;HTU21D;52805;51.074;5.842;2024-03-02T00:48:54;11.57;9.78
66035;HTU21D;52805;51.074;5.842;2024-03-02T00:51:25;11.57;9.85
66035;HTU21D;52805;51.074;5.842;2024-03-02T00:53:52;11.59;9.77
66035;HTU21D;52805;51.074;5.842;2024-03-02T00:56:21;11.59;9.90
66035;HTU21D;52805;51.074;5.842;2024-03-02T00:58:47;11.59;10.08
66035;HTU21D;52805;51.074;5.842;2024-03-02T01:01:13;11.60;9.59
66035;HTU21D;52805;51.074;5.842;2024-03-02T01:03:38;11.60;10.90
66035;HTU21D;52805;51.074;5.842;2024-03-02T01:06:04;11.55;11.15
66035;HTU21D;52805;51.074;5.842;2024-03-02T01:08:30;11.48;12.68
66035;HTU21D;52805;51.074;5.842;2024-03-02T01:10:56;11.30;14.50
66035;HTU21D;52805;51.074;5.842;2024-03-02T01:13:22;11.13;15.13
66035;HTU21D;52805;51.074;5.842;2024-03-02T01:15:49;11.00;19.06
66035;HTU21D;52805;51.074;5.842;2024-03-02T01:18:14;10.89;17.45
66035;HTU21D;52805;51.074;5.842;2024-03-02T01:20:40;10.74;18.98
66035;HTU21D;52805;51.074;5.842;2024-03-02T01:23:06;10.69;19.31
66035;HTU21D;52805;51.074;5.842;2024-03-02T01:25:32;10.53;20.22
66035;HTU21D;52805;51.074;5.842;2024-03-02T01:27:57;10.43;21.76
66035;HTU21D;52805;51.074;5.842;2024-03-02T01:30:23;10.30;22.64
66035;HTU21D;52805;51.074;5.842;2024-03-02T01:32:49;10.21;22.72
66035;HTU21D;52805;51.074;5.842;2024-03-02T01:35:14;10.16;23.75
66035;HTU21D;52805;51.074;5.842;2024-03-02T01:37:41;10.19;24.23
66035;HTU21D;52805;51.074;5.842;2024-03-02T01:40:07;10.14;25.23
66035;HTU21D;52805;51.074;5.842;2024-03-02T01:42:38;10.13;26.29
66035;HTU21D;52805;51.074;5.842;2024-03-02T01:45:05;10.14;27.07
66035;HTU21D;52805;51.074;5.842;2024-03-02T01:47:31;10.14;27.77
66035;HTU21D;52805;51.074;5.842;2024-03-02T01:49:58;10.15;28.22
66035;HTU21D;52805;51.074;5.842;2024-03-02T01:52:24;10.16;28.58
66035;HTU21D;52805;51.074;5.842;2024-03-02T01:54:50;10.19;29.03
66035;HTU21D;52805;51.074;5.842;2024-03-02T01:57:16;10.18;29.11
66035;HTU21D;52805;51.074;5.842;2024-03-02T01:59:42;10.18;29.53
66035;HTU21D;52805;51.074;5.842;2024-03-02T02:02:08;10.23;29.56
66035;HTU21D;52805;51.074;5.842;2024-03-02T02:04:34;10.20;28.93
66035;HTU21D;52805;51.074;5.842;2024-03-02T02:07:00;10.19;29.10
66035;HTU21D;52805;51.074;5.842;2024-03-02T02:09:25;10.15;28.85
66035;HTU21D;52805;51.074;5.842;2024-03-02T02:11:52;10.14;28.81
66035;HTU21D;52805;51.074;5.842;2024-03-02T02:14:18;10.06;28.58
66035;HTU21D;52805;51.074;5.842;2024-03-02T02:16:44;10.06;28.60
66035;HTU21D;52805;51.074;5.842;2024-03-02T02:19:09;10.00;28.48
66035;HTU21D;52805;51.074;5.842;2024-03-02T02:21:35;9.96;28.84
66035;HTU21D;52805;51.074;5.842;2024-03-02T02:24:01;9.99;28.84
66035;HTU21D;52805;51.074;5.842;2024-03-02T02:26:29;9.96;28.84
66035;HTU21D;52805;51.074;5.842;2024-03-02T02:28:55;9.97;29.48
66035;HTU21D;52805;51.074;5.842;2024-03-02T02:31:21;9.93;29.79
66035;HTU21D;52805;51.074;5.842;2024-03-02T02:33:46;9.96;29.39
66035;HTU21D;52805;51.074;5.842;2024-03-02T02:36:12;9.93;29.39
66035;HTU21D;52805;51.074;5.842;2024-03-02T02:38:42;9.93;29.69
66035;HTU21D;52805;51.074;5.842;2024-03-02T02:41:09;9.94;30.36
66035;HTU21D;52805;51.074;5.842;2024-03-02T02:43:35;9.94;29.96
66035;HTU21D;52805;51.074;5.842;2024-03-02T02:46:00;9.94;30.24
66035;HTU21D;52805;51.074;5.842;2024-03-02T02:48:26;9.95;30.25
66035;HTU21D;52805;51.074;5.842;2024-03-02T02:50:51;9.94;29.94
66035;HTU21D;52805;51.074;5.842;2024-03-02T02:53:17;9.93;30.60
66035;HTU21D;52805;51.074;5.842;2024-03-02T02:55:43;9.94;30.42
66035;HTU21D;52805;51.074;5.842;2024-03-02T02:58:09;9.96;30.62
66035;HTU21D;52805;51.074;5.842;2024-03-02T03:00:35;9.95;29.99
66035;HTU21D;52805;51.074;5.842;2024-03-02T03:03:02;9.97;29.68
66035;HTU21D;52805;51.074;5.842;2024-03-02T03:05:28;9.93;29.34
66035;HTU21D;52805;51.074;5.842;2024-03-02T03:07:54;9.94;29.66
66035;HTU21D;52805;51.074;5.842;2024-03-02T03:10:20;9.95;29.77
66035;HTU21D;52805;51.074;5.842;2024-03-02T03:12:47;9.98;29.49
66035;HTU21D;52805;51.074;5.842;2024-03-02T03:15:13;9.97;29.25
66035;HTU21D;52805;51.074;5.842;2024-03-02T03:17:40;9.98;29.61
66035;HTU21D;52805;51.074;5.842;2024-03-02T03:20:06;9.99;29.46
66035;HTU21D;52805;51.074;5.842;2024-03-02T03:22:35;10.01;28.93
66035;HTU21D;52805;51.074;5.842;2024-03-02T03:25:01;10.03;28.98
66035;HTU21D;52805;51.074;5.842;2024-03-02T03:27:29;10.00;28.74
66035;HTU21D;52805;51.074;5.842;2024-03-02T03:29:55;10.03;29.01
66035;HTU21D;52805;51.074;5.842;2024-03-02T03:32:20;10.03;28.68
66035;HTU21D;52805;51.074;5.842;2024-03-02T03:34:47;10.00;28.71
66035;HTU21D;52805;51.074;5.842;2024-03-02T03:37:14;10.04;29.54
66035;HTU21D;52805;51.074;5.842;2024-03-02T03:39:41;10.05;28.96
66035;HTU21D;52805;51.074;5.842;2024-03-02T03:42:06;10.10;29.24
66035;HTU21D;52805;51.074;5.842;2024-03-02T03:44:33;10.04;29.74
66035;HTU21D;52805;51.074;5.842;2024-03-02T03:46:59;10.05;29.40
66035;HTU21D;52805;51.074;5.842;2024-03-02T03:49:24;10.06;29.84
66035;HTU21D;52805;51.074;5.842;2024-03-02T03:51:50;10.06;29.89
66035;HTU21D;52805;51.074;5.842;2024-03-02T03:54:16;10.07;30.13
66035;HTU21D;52805;51.074;5.842;2024-03-02T03:56:41;10.06;29.73
66035;HTU21D;52805;51.074;5.842;2024-03-02T03:59:07;10.07;30.29
66035;HTU21D;52805;51.074;5.842;2024-03-02T04:01:33;10.06;30.38
66035;HTU21D;52805;51.074;5.842;2024-03-02T04:03:59;10.04;29.81
66035;HTU21D;52805;51.074;5.842;2024-03-02T04:06:25;10.05;30.43
66035;HTU21D;52805;51.074;5.842;2024-03-02T04:08:50;10.00;29.93
66035;HTU21D;52805;51.074;5.842;2024-03-02T04:11:16;9.99;30.71
66035;HTU21D;52805;51.074;5.842;2024-03-02T04:13:42;10.00;30.89
66035;HTU21D;52805;51.074;5.842;2024-03-02T04:16:07;10.01;31.19
66035;HTU21D;52805;51.074;5.842;2024-03-02T04:18:33;10.06;31.18
66035;HTU21D;52805;51.074;5.842;2024-03-02T04:21:00;10.06;30.96
66035;HTU21D;52805;51.074;5.842;2024-03-02T04:23:26;10.06;31.09
66035;HTU21D;52805;51.074;5.842;2024-03-02T04:25:52;10.04;31.23
66035;HTU21D;52805;51.074;5.842;2024-03-02T04:28:17;10.03;31.45
66035;HTU21D;52805;51.074;5.842;2024-03-02T04:30:43;10.03;32.22
66035;HTU21D;52805;51.074;5.842;2024-03-02T04:33:09;10.01;32.52
66035;HTU21D;52805;51.074;5.842;2024-03-02T04:35:36;10.00;32.78
66035;HTU21D;52805;51.074;5.842;2024-03-02T04:38:02;9.99;32.94
66035;HTU21D;52805;51.074;5.842;2024-03-02T04:40:27;9.99;33.05
66035;HTU21D;52805;51.074;5.842;2024-03-02T04:42:53;9.98;32.49
66035;HTU21D;52805;51.074;5.842;2024-03-02T04:45:19;9.95;32.76
66035;HTU21D;52805;51.074;5.842;2024-03-02T04:47:45;9.95;33.02
66035;HTU21D;52805;51.074;5.842;2024-03-02T04:50:11;9.93;33.54
66035;HTU21D;52805;51.074;5.842;2024-03-02T04:52:36;9.93;33.23
66035;HTU21D;52805;51.074;5.842;2024-03-02T04:55:03;9.94;33.34
66035;HTU21D;52805;51.074;5.842;2024-03-02T04:57:35;9.92;33.70
66035;HTU21D;52805;51.074;5.842;2024-03-02T05:00:01;9.90;33.33
66035;HTU21D;52805;51.074;5.842;2024-03-02T05:02:27;9.89;33.98
66035;HTU21D;52805;51.074;5.842;2024-03-02T05:04:52;9.89;33.64
66035;HTU21D;52805;51.074;5.842;2024-03-02T05:07:18;9.88;34.08
66035;HTU21D;52805;51.074;5.842;2024-03-02T05:09:44;9.88;34.43
66035;HTU21D;52805;51.074;5.842;2024-03-02T05:12:10;9.89;33.92
66035;HTU21D;52805;51.074;5.842;2024-03-02T05:14:54;9.89;34.38
66035;HTU21D;52805;51.074;5.842;2024-03-02T05:17:20;9.90;34.42
66035;HTU21D;52805;51.074;5.842;2024-03-02T05:19:45;9.88;34.69
66035;HTU21D;52805;51.074;5.842;2024-03-02T05:22:11;9.85;34.46
66035;HTU21D;52805;51.074;5.842;2024-03-02T05:24:37;9.85;34.69
66035;HTU21D;52805;51.074;5.842;2024-03-02T05:27:02;9.84;34.57
66035;HTU21D;52805;51.074;5.842;2024-03-02T05:29:28;9.83;34.82
66035;HTU21D;52805;51.074;5.842;2024-03-02T05:31:54;9.85;34.93
66035;HTU21D;52805;51.074;5.842;2024-03-02T05:34:19;9.84;34.76
66035;HTU21D;52805;51.074;5.842;2024-03-02T05:36:45;9.82;34.33
66035;HTU21D;52805;51.074;5.842;2024-03-02T05:39:11;9.80;34.88
66035;HTU21D;52805;51.074;5.842;2024-03-02T05:41:36;9.81;34.73
66035;HTU21D;52805;51.074;5.842;2024-03-02T05:44:04;9.79;35.05
66035;HTU21D;52805;51.074;5.842;2024-03-02T05:46:29;9.75;34.83
66035;HTU21D;52805;51.074;5.842;2024-03-02T05:48:55;9.70;34.81
66035;HTU21D;52805;51.074;5.842;2024-03-02T05:51:21;9.68;34.57
66035;HTU21D;52805;51.074;5.842;2024-03-02T05:53:46;9.69;34.86
66035;HTU21D;52805;51.074;5.842;2024-03-02T05:56:13;9.72;35.66
66035;HTU21D;52805;51.074;5.842;2024-03-02T05:58:38;9.78;35.52
66035;HTU21D;52805;51.074;5.842;2024-03-02T06:01:22;9.80;35.66
66035;HTU21D;52805;51.074;5.842;2024-03-02T06:03:57;9.81;35.48
66035;HTU21D;52805;51.074;5.842;2024-03-02T06:06:24;9.83;35.15
66035;HTU21D;52805;51.074;5.842;2024-03-02T06:08:50;9.80;34.73
66035;HTU21D;52805;51.074;5.842;2024-03-02T06:11:17;9.79;34.57
66035;HTU21D;52805;51.074;5.842;2024-03-02T06:13:42;9.76;34.72
66035;HTU21D;52805;51.074;5.842;2024-03-02T06:16:08;9.75;34.64
66035;HTU21D;52805;51.074;5.842;2024-03-02T06:18:34;9.70;34.41
66035;HTU21D;52805;51.074;5.842;2024-03-02T06:21:00;9.68;34.15
66035;HTU21D;52805;51.074;5.842;2024-03-02T06:23:27;9.62;34.04
66035;HTU21D;52805;51.074;5.842;2024-03-02T06:25:52;9.59;34.13
66035;HTU21D;52805;51.074;5.842;2024-03-02T06:28:18;9.56;34.12
66035;HTU21D;52805;51.074;5.842;2024-03-02T06:30:44;9.56;33.93
66035;HTU21D;52805;51.074;5.842;2024-03-02T06:33:10;9.55;34.02
66035;HTU21D;52805;51.074;5.842;2024-03-02T06:35:36;9.52;33.76
66035;HTU21D;52805;51.074;5.842;2024-03-02T06:38:02;9.51;33.22
66035;HTU21D;52805;51.074;5.842;2024-03-02T06:40:28;9.49;33.17
66035;HTU21D;52805;51.074;5.842;2024-03-02T06:42:53;9.48;32.80
66035;HTU21D;52805;51.074;5.842;2024-03-02T06:45:19;9.47;33.16
66035;HTU21D;52805;51.074;5.842;2024-03-02T06:47:46;9.45;33.08
66035;HTU21D;52805;51.074;5.842;2024-03-02T06:50:11;9.45;32.90
66035;HTU21D;52805;51.074;5.842;2024-03-02T06:52:38;9.41;32.47
66035;HTU21D;52805;51.074;5.842;2024-03-02T06:55:04;9.40;32.74
66035;HTU21D;52805;51.074;5.842;2024-03-02T06:57:30;9.40;32.25
66035;HTU21D;52805;51.074;5.842;2024-03-02T06:59:56;9.40;31.80
66035;HTU21D;52805;51.074;5.842;2024-03-02T07:02:24;9.42;32.09
66035;HTU21D;52805;51.074;5.842;2024-03-02T07:04:53;9.42;32.11
66035;HTU21D;52805;51.074;5.842;2024-03-02T07:07:18;9.47;31.96
66035;HTU21D;52805;51.074;5.842;2024-03-02T07:09:44;9.47;31.49
66035;HTU21D;52805;51.074;5.842;2024-03-02T07:12:10;9.50;31.26
66035;HTU21D;52805;51.074;5.842;2024-03-02T07:14:35;9.54;31.14
66035;HTU21D;52805;51.074;5.842;2024-03-02T07:17:20;9.62;30.85
66035;HTU21D;52805;51.074;5.842;2024-03-02T07:19:45;9.67;30.39
66035;HTU21D;52805;51.074;5.842;2024-03-02T07:22:12;9.74;30.66
66035;HTU21D;52805;51.074;5.842;2024-03-02T07:24:44;9.83;30.39
66035;HTU21D;52805;51.074;5.842;2024-03-02T07:27:12;9.88;30.35
66035;HTU21D;52805;51.074;5.842;2024-03-02T07:29:39;9.94;30.32
66035;HTU21D;52805;51.074;5.842;2024-03-02T07:32:05;10.04;30.30
66035;HTU21D;52805;51.074;5.842;2024-03-02T07:34:31;10.09;30.01
66035;HTU21D;52805;51.074;5.842;2024-03-02T07:36:57;10.16;29.69
66035;HTU21D;52805;51.074;5.842;2024-03-02T07:39:24;10.19;29.50
66035;HTU21D;52805;51.074;5.842;2024-03-02T07:41:50;10.25;29.19
66035;HTU21D;52805;51.074;5.842;2024-03-02T07:44:16;10.27;29.08
66035;HTU21D;52805;51.074;5.842;2024-03-02T07:46:45;10.28;28.64
66035;HTU21D;52805;51.074;5.842;2024-03-02T07:49:20;10.33;29.18
66035;HTU21D;52805;51.074;5.842;2024-03-02T07:51:46;10.34;28.25
66035;HTU21D;52805;51.074;5.842;2024-03-02T07:54:12;10.34;28.50
66035;HTU21D;52805;51.074;5.842;2024-03-02T07:56:38;10.34;28.21
66035;HTU21D;52805;51.074;5.842;2024-03-02T07:59:04;10.34;28.09
66035;HTU21D;52805;51.074;5.842;2024-03-02T08:01:31;10.33;27.97
66035;HTU21D;52805;51.074;5.842;2024-03-02T08:04:01;10.33;27.91
66035;HTU21D;52805;51.074;5.842;2024-03-02T08:06:30;10.30;28.42
66035;HTU21D;52805;51.074;5.842;2024-03-02T08:08:59;10.29;27.73
66035;HTU21D;52805;51.074;5.842;2024-03-02T08:11:26;10.27;27.74
66035;HTU21D;52805;51.074;5.842;2024-03-02T08:13:53;10.24;28.41
66035;HTU21D;52805;51.074;5.842;2024-03-02T08:16:22;10.27;27.87
66035;HTU21D;52805;51.074;5.842;2024-03-02T08:18:49;10.24;27.61
66035;HTU21D;52805;51.074;5.842;2024-03-02T08:21:15;10.24;28.40
66035;HTU21D;52805;51.074;5.842;2024-03-02T08:23:43;10.25;28.13
66035;HTU21D;52805;51.074;5.842;2024-03-02T08:26:09;10.26;27.92
66035;HTU21D;52805;51.074;5.842;2024-03-02T08:28:35;10.28;27.87
66035;HTU21D;52805;51.074;5.842;2024-03-02T08:31:06;10.33;27.85
66035;HTU21D;52805;51.074;5.842;2024-03-02T08:33:32;10.35;28.19
66035;HTU21D;52805;51.074;5.842;2024-03-02T08:35:59;10.37;27.64
66035;HTU21D;52805;51.074;5.842;2024-03-02T08:38:25;10.38;28.05
66035;HTU21D;52805;51.074;5.842;2024-03-02T08:40:51;10.40;27.64
66035;HTU21D;52805;51.074;5.842;2024-03-02T08:43:17;10.42;27.92
66035;HTU21D;52805;51.074;5.842;2024-03-02T08:45:43;10.46;27.36
66035;HTU21D;52805;51.074;5.842;2024-03-02T08:48:09;10.50;27.42
66035;HTU21D;52805;51.074;5.842;2024-03-02T08:50:36;10.53;27.83
66035;HTU21D;52805;51.074;5.842;2024-03-02T08:53:03;10.53;27.71
66035;HTU21D;52805;51.074;5.842;2024-03-02T08:55:29;10.59;27.66
66035;HTU21D;52805;51.074;5.842;2024-03-02T08:57:55;10.63;26.95
66035;HTU21D;52805;51.074;5.842;2024-03-02T09:00:22;10.69;27.02
66035;HTU21D;52805;51.074;5.842;2024-03-02T09:02:48;10.77;26.42
66035;HTU21D;52805;51.074;5.842;2024-03-02T09:05:14;10.77;26.72
66035;HTU21D;52805;51.074;5.842;2024-03-02T09:07:40;10.83;26.39
66035;HTU21D;52805;51.074;5.842;2024-03-02T09:10:06;10.83;26.06
66035;HTU21D;52805;51.074;5.842;2024-03-02T09:12:32;10.90;25.33
66035;HTU21D;52805;51.074;5.842;2024-03-02T09:15:00;10.93;25.64
66035;HTU21D;52805;51.074;5.842;2024-03-02T09:17:26;10.98;25.53
66035;HTU21D;52805;51.074;5.842;2024-03-02T09:19:52;11.04;24.88
66035;HTU21D;52805;51.074;5.842;2024-03-02T09:22:20;11.13;24.72
66035;HTU21D;52805;51.074;5.842;2024-03-02T09:24:46;11.22;24.18
66035;HTU21D;52805;51.074;5.842;2024-03-02T09:27:12;11.27;23.88
66035;HTU21D;52805;51.074;5.842;2024-03-02T09:29:38;11.32;24.08
66035;HTU21D;52805;51.074;5.842;2024-03-02T09:32:05;11.42;23.75
66035;HTU21D;52805;51.074;5.842;2024-03-02T09:34:31;11.47;23.25
66035;HTU21D;52805;51.074;5.842;2024-03-02T09:36:57;11.51;22.81
66035;HTU21D;52805;51.074;5.842;2024-03-02T09:39:24;11.57;22.22
66035;HTU21D;52805;51.074;5.842;2024-03-02T09:41:51;11.60;22.29
66035;HTU21D;52805;51.074;5.842;2024-03-02T09:44:17;11.62;21.86
66035;HTU21D;52805;51.074;5.842;2024-03-02T09:46:43;11.67;22.02
66035;HTU21D;52805;51.074;5.842;2024-03-02T09:49:12;11.75;20.82
66035;HTU21D;52805;51.074;5.842;2024-03-02T09:51:38;11.76;20.17
66035;HTU21D;52805;51.074;5.842;2024-03-02T09:54:07;11.79;19.99
66035;HTU21D;52805;51.074;5.842;2024-03-02T09:56:33;11.82;19.44
66035;HTU21D;52805;51.074;5.842;2024-03-02T09:58:59;11.87;19.58
66035;HTU21D;52805;51.074;5.842;2024-03-02T10:01:25;11.94;19.34
66035;HTU21D;52805;51.074;5.842;2024-03-02T10:03:52;12.01;19.37
66035;HTU21D;52805;51.074;5.842;2024-03-02T10:08:45;12.04;18.55
66035;HTU21D;52805;51.074;5.842;2024-03-02T10:11:10;12.08;18.56
66035;HTU21D;52805;51.074;5.842;2024-03-02T10:13:36;12.14;18.39
66035;HTU21D;52805;51.074;5.842;2024-03-02T10:16:11;12.21;18.36
66035;HTU21D;52805;51.074;5.842;2024-03-02T10:18:37;12.32;17.93
66035;HTU21D;52805;51.074;5.842;2024-03-02T10:21:15;12.42;17.11
66035;HTU21D;52805;51.074;5.842;2024-03-02T10:23:41;12.46;16.99
66035;HTU21D;52805;51.074;5.842;2024-03-02T10:26:19;12.53;16.83
66035;HTU21D;52805;51.074;5.842;2024-03-02T10:28:48;12.62;16.42
66035;HTU21D;52805;51.074;5.842;2024-03-02T10:31:14;12.66;16.32
66035;HTU21D;52805;51.074;5.842;2024-03-02T10:33:40;12.71;15.83
66035;HTU21D;52805;51.074;5.842;2024-03-02T10:36:05;12.78;15.16
66035;HTU21D;52805;51.074;5.842;2024-03-02T10:38:31;12.81;14.59
66035;HTU21D;52805;51.074;5.842;2024-03-02T10:40:58;12.86;13.78
66035;HTU21D;52805;51.074;5.842;2024-03-02T10:43:25;12.87;13.88
66035;HTU21D;52805;51.074;5.842;2024-03-02T10:45:52;12.92;13.42
66035;HTU21D;52805;51.074;5.842;2024-03-02T10:48:19;12.93;13.37
66035;HTU21D;52805;51.074;5.842;2024-03-02T10:50:46;13.00;12.54
66035;HTU21D;52805;51.074;5.842;2024-03-02T10:53:12;13.04;12.10
66035;HTU21D;52805;51.074;5.842;2024-03-02T10:55:38;13.06;11.49
66035;HTU21D;52805;51.074;5.842;2024-03-02T10:58:05;13.10;11.81
66035;HTU21D;52805;51.074;5.842;2024-03-02T11:00:34;13.17;11.30
66035;HTU21D;52805;51.074;5.842;2024-03-02T11:03:07;13.24;11.66
66035;HTU21D;52805;51.074;5.842;2024-03-02T11:05:43;13.32;11.42
66035;HTU21D;52805;51.074;5.842;2024-03-02T11:08:13;13.40;10.95
66035;HTU21D;52805;51.074;5.842;2024-03-02T11:10:50;13.48;10.94
66035;HTU21D;52805;51.074;5.842;2024-03-02T11:13:32;13.60;10.27
66035;HTU21D;52805;51.074;5.842;2024-03-02T11:16:26;13.67;9.56
66035;HTU21D;52805;51.074;5.842;2024-03-02T11:18:53;13.77;8.28
66035;HTU21D;52805;51.074;5.842;2024-03-02T11:21:20;13.82;8.69
66035;HTU21D;52805;51.074;5.842;2024-03-02T11:23:46;13.89;7.67
66035;HTU21D;52805;51.074;5.842;2024-03-02T11:26:19;13.91;7.74
66035;HTU21D;52805;51.074;5.842;2024-03-02T11:28:45;13.98;7.19
66035;HTU21D;52805;51.074;5.842;2024-03-02T11:31:11;14.04;6.03
66035;HTU21D;52805;51.074;5.842;2024-03-02T11:33:37;14.06;6.17
66035;HTU21D;52805;51.074;5.842;2024-03-02T11:36:03;14.13;6.59
66035;HTU21D;52805;51.074;5.842;2024-03-02T11:38:34;14.28;6.28
66035;HTU21D;52805;51.074;5.842;2024-03-02T11:41:06;14.38;5.12
66035;HTU21D;52805;51.074;5.842;2024-03-02T11:43:39;14.50;4.61
66035;HTU21D;52805;51.074;5.842;2024-03-02T11:46:06;14.57;4.79
66035;HTU21D;52805;51.074;5.842;2024-03-02T11:48:36;14.60;4.28
66035;HTU21D;52805;51.074;5.842;2024-03-02T11:51:03;14.60;3.35
66035;HTU21D;52805;51.074;5.842;2024-03-02T11:53:30;14.59;3.21
66035;HTU21D;52805;51.074;5.842;2024-03-02T11:55:58;14.64;2.88
66035;HTU21D;52805;51.074;5.842;2024-03-02T11:58:24;14.73;2.58
66035;HTU21D;52805;51.074;5.842;2024-03-02T12:00:52;14.86;1.53
66035;HTU21D;52805;51.074;5.842;2024-03-02T12:03:21;14.94;0.99
66035;HTU21D;52805;51.074;5.842;2024-03-02T12:05:53;15.02;0.55
66035;HTU21D;52805;51.074;5.842;2024-03-02T12:08:19;15.08;0.48
66035;HTU21D;52805;51.074;5.842;2024-03-02T12:11:05;15.18;0.25
66035;HTU21D;52805;51.074;5.842;2024-03-02T12:13:32;15.27;-0.46
66035;HTU21D;52805;51.074;5.842;2024-03-02T12:15:58;15.38;-0.77
66035;HTU21D;52805;51.074;5.842;2024-03-02T12:18:25;15.44;-0.90
66035;HTU21D;52805;51.074;5.842;2024-03-02T12:20:51;15.56;-2.60
66035;HTU21D;52805;51.074;5.842;2024-03-02T12:23:24;15.57;-2.77
66035;HTU21D;52805;51.074;5.842;2024-03-02T12:25:50;15.59;-2.75
66035;HTU21D;52805;51.074;5.842;2024-03-02T12:28:16;15.65;-3.09
66035;HTU21D;52805;51.074;5.842;2024-03-02T12:30:43;15.70;-3.44
66035;HTU21D;52805;51.074;5.842;2024-03-02T12:33:11;15.80;-4.10
66035;HTU21D;52805;51.074;5.842;2024-03-02T12:35:36;15.77;-3.75
66035;HTU21D;52805;51.074;5.842;2024-03-02T12:38:02;15.75;-3.66
66035;HTU21D;52805;51.074;5.842;2024-03-02T12:40:28;15.82;-3.42
66035;HTU21D;52805;51.074;5.842;2024-03-02T12:42:53;15.95;-3.73
66035;HTU21D;52805;51.074;5.842;2024-03-02T12:45:20;16.11;-4.09
66035;HTU21D;52805;51.074;5.842;2024-03-02T12:47:49;16.26;-4.51
66035;HTU21D;52805;51.074;5.842;2024-03-02T12:50:18;16.47;-6.00
66035;HTU21D;52805;51.074;5.842;2024-03-02T12:52:51;16.57;-6.00
66035;HTU21D;52805;51.074;5.842;2024-03-02T12:55:17;16.74;-6.00
66035;HTU21D;52805;51.074;5.842;2024-03-02T12:57:43;16.88;-6.00
66035;HTU21D;52805;51.074;5.842;2024-03-02T13:00:09;17.05;-6.00
66035;HTU21D;52805;51.074;5.842;2024-03-02T13:02:36;17.13;-6.00
66035;HTU21D;52805;51.074;5.842;2024-03-02T13:05:07;17.10;-6.00
66035;HTU21D;52805;51.074;5.842;2024-03-02T13:07:37;16.99;-6.00
66035;HTU21D;52805;51.074;5.842;2024-03-02T13:10:04;16.81;-6.00
66035;HTU21D;52805;51.074;5.842;2024-03-02T13:12:31;16.62;-6.00
66035;HTU21D;52805;51.074;5.842;2024-03-02T13:14:58;16.60;-6.00
66035;HTU21D;52805;51.074;5.842;2024-03-02T13:17:28;16.62;-6.00
66035;HTU21D;52805;51.074;5.842;2024-03-02T13:19:56;16.56;-6.00
66035;HTU21D;52805;51.074;5.842;2024-03-02T13:22:22;16.46;-6.00
66035;HTU21D;52805;51.074;5.842;2024-03-02T13:24:49;16.44;-6.00
66035;HTU21D;52805;51.074;5.842;2024-03-02T13:27:15;16.47;-6.00
66035;HTU21D;52805;51.074;5.842;2024-03-02T13:29:42;16.54;-6.00
66035;HTU21D;52805;51.074;5.842;2024-03-02T13:32:08;16.67;-6.00
66035;HTU21D;52805;51.074;5.842;2024-03-02T13:34:35;16.86;-6.00
66035;HTU21D;52805;51.074;5.842;2024-03-02T13:37:03;17.07;-6.00
66035;HTU21D;52805;51.074;5.842;2024-03-02T13:39:30;17.16;-6.00
66035;HTU21D;52805;51.074;5.842;2024-03-02T13:41:58;17.10;-6.00
66035;HTU21D;52805;51.074;5.842;2024-03-02T13:44:31;17.10;-6.00
66035;HTU21D;52805;51.074;5.842;2024-03-02T13:46:59;17.11;-6.00
66035;HTU21D;52805;51.074;5.842;2024-03-02T13:49:25;17.19;-6.00
66035;HTU21D;52805;51.074;5.842;2024-03-02T13:52:06;17.22;-6.00
66035;HTU21D;52805;51.074;5.842;2024-03-02T13:54:43;17.26;-6.00
66035;HTU21D;52805;51.074;5.842;2024-03-02T13:57:10;17.29;-6.00
66035;HTU21D;52805;51.074;5.842;2024-03-02T13:59:37;17.38;-6.00
66035;HTU21D;52805;51.074;5.842;2024-03-02T14:02:05;17.45;-6.00
66035;HTU21D;52805;51.074;5.842;2024-03-02T14:04:34;17.49;-6.00
66035;HTU21D;52805;51.074;5.842;2024-03-02T14:07:01;17.48;-6.00
66035;HTU21D;52805;51.074;5.842;2024-03-02T14:09:27;17.49;-6.00
66035;HTU21D;52805;51.074;5.842;2024-03-02T14:11:54;17.49;-6.00
66035;HTU21D;52805;51.074;5.842;2024-03-02T14:14:20;17.44;-6.00
66035;HTU21D;52805;51.074;5.842;2024-03-02T14:16:45;17.29;-6.00
66035;HTU21D;52805;51.074;5.842;2024-03-02T14:19:12;17.09;-6.00
66035;HTU21D;52805;51.074;5.842;2024-03-02T14:21:38;16.99;-6.00
66035;HTU21D;52805;51.074;5.842;2024-03-02T14:24:04;16.98;-6.00
66035;HTU21D;52805;51.074;5.842;2024-03-02T14:26:30;17.06;-6.00
66035;HTU21D;52805;51.074;5.842;2024-03-02T14:28:56;17.17;-6.00
66035;HTU21D;52805;51.074;5.842;2024-03-02T14:31:21;17.26;-6.00
66035;HTU21D;52805;51.074;5.842;2024-03-02T14:33:47;17.29;-6.00
66035;HTU21D;52805;51.074;5.842;2024-03-02T14:36:13;17.29;-6.00
66035;HTU21D;52805;51.074;5.842;2024-03-02T14:38:39;17.32;-6.00
66035;HTU21D;52805;51.074;5.842;2024-03-02T14:41:05;17.31;-6.00
66035;HTU21D;52805;51.074;5.842;2024-03-02T14:43:30;17.34;-6.00
66035;HTU21D;52805;51.074;5.842;2024-03-02T14:45:56;17.26;-6.00
66035;HTU21D;52805;51.074;5.842;2024-03-02T14:48:24;17.21;-6.00
66035;HTU21D;52805;51.074;5.842;2024-03-02T14:50:49;17.11;-6.00
66035;HTU21D;52805;51.074;5.842;2024-03-02T14:53:15;16.96;-6.00
66035;HTU21D;52805;51.074;5.842;2024-03-02T14:55:41;16.82;-6.00
66035;HTU21D;52805;51.074;5.842;2024-03-02T14:58:06;16.67;-6.00
66035;HTU21D;52805;51.074;5.842;2024-03-02T15:00:33;16.58;-6.00
66035;HTU21D;52805;51.074;5.842;2024-03-02T15:02:59;16.50;-6.00
66035;HTU21D;52805;51.074;5.842;2024-03-02T15:05:25;16.47;-6.00
66035;HTU21D;52805;51.074;5.842;2024-03-02T15:07:52;16.42;-6.00
66035;HTU21D;52805;51.074;5.842;2024-03-02T15:10:18;16.39;-6.00
66035;HTU21D;52805;51.074;5.842;2024-03-02T15:12:44;16.36;-6.00
66035;HTU21D;52805;51.074;5.842;2024-03-02T15:15:10;16.31;-6.00
66035;HTU21D;52805;51.074;5.842;2024-03-02T15:17:38;16.25;-6.00
66035;HTU21D;52805;51.074;5.842;2024-03-02T15:20:05;16.22;-6.00
66035;HTU21D;52805;51.074;5.842;2024-03-02T15:22:32;16.17;-6.00
66035;HTU21D;52805;51.074;5.842;2024-03-02T15:24:58;16.12;-6.00
66035;HTU21D;52805;51.074;5.842;2024-03-02T15:27:24;16.05;-6.00
66035;HTU21D;52805;51.074;5.842;2024-03-02T15:29:50;16.05;-6.00